CEB619 RPSP-RPLL
Flight info
| Callsign | CEB619 |
|---|---|
| Flight time | N/A |
| Altitude | 34000 |
| Route | LAMOK2P LAMOK B473 LAIYA LAIYA3R |
| Aircraft | A339/H-V/N |
Departure
| Time | 2026-04-23 02:46 |
|---|---|
| Airport | Bohol-Panglao International Airport (RPSP) |
Arrival
| Time | N/A |
|---|---|
| Airport | Ninoy Aquino International Airport (RPLL) |
| Time | Latitude | Longitude | Altitude | Speed | Heading |
|---|---|---|---|---|---|
| 2026-04-23 02:40 | 9.57042 | 123.77132 | 54 ft | 4 kts | 211° |
| 2026-04-23 02:41 | 9.57041 | 123.77131 | 54 ft | 4 kts | 211° |
| 2026-04-23 02:41 | 9.57002 | 123.77110 | 53 ft | 8 kts | 209° |
| 2026-04-23 02:41 | 9.56940 | 123.77073 | 53 ft | 11 kts | 211° |
| 2026-04-23 02:42 | 9.56865 | 123.77027 | 52 ft | 9 kts | 211° |
| 2026-04-23 02:42 | 9.56840 | 123.76966 | 51 ft | 11 kts | 290° |
| 2026-04-23 02:42 | 9.56884 | 123.76893 | 51 ft | 12 kts | 301° |
| 2026-04-23 02:42 | 9.56926 | 123.76823 | 51 ft | 6 kts | 294° |
| 2026-04-23 02:43 | 9.56904 | 123.76776 | 50 ft | 10 kts | 213° |
| 2026-04-23 02:43 | 9.56835 | 123.76734 | 49 ft | 12 kts | 210° |
| 2026-04-23 02:43 | 9.56752 | 123.76684 | 50 ft | 14 kts | 212° |
| 2026-04-23 02:43 | 9.56664 | 123.76631 | 51 ft | 15 kts | 211° |
| 2026-04-23 02:44 | 9.56566 | 123.76573 | 49 ft | 17 kts | 210° |
| 2026-04-23 02:44 | 9.56481 | 123.76548 | 49 ft | 11 kts | 174° |
| 2026-04-23 02:44 | 9.56429 | 123.76532 | 49 ft | 7 kts | 242° |
| 2026-04-23 02:44 | 9.56455 | 123.76508 | 48 ft | 7 kts | 13° |
| 2026-04-23 02:45 | 9.56499 | 123.76534 | 49 ft | 7 kts | 28° |
| 2026-04-23 02:45 | 9.56622 | 123.76604 | 50 ft | 52 kts | 31° |
| 2026-04-23 02:45 | 9.57183 | 123.76944 | 52 ft | 130 kts | 30° |
| 2026-04-23 02:45 | 9.58090 | 123.77487 | 418 ft | 161 kts | 32° |
| 2026-04-23 02:46 | 9.59003 | 123.78020 | 1349 ft | 153 kts | 25° |
| 2026-04-23 02:46 | 9.60060 | 123.78111 | 2082 ft | 163 kts | 357° |
| 2026-04-23 02:46 | 9.61237 | 123.77916 | 2689 ft | 181 kts | 354° |
| 2026-04-23 02:46 | 9.62531 | 123.77676 | 3284 ft | 198 kts | 353° |
| 2026-04-23 02:47 | 9.63920 | 123.77426 | 3964 ft | 210 kts | 353° |
| 2026-04-23 02:47 | 9.65369 | 123.77177 | 4589 ft | 214 kts | 353° |
| 2026-04-23 02:47 | 9.66881 | 123.76929 | 4925 ft | 232 kts | 353° |
| 2026-04-23 02:47 | 9.68545 | 123.76661 | 5294 ft | 249 kts | 353° |
| 2026-04-23 02:48 | 9.70288 | 123.76382 | 5839 ft | 257 kts | 353° |
| 2026-04-23 02:48 | 9.72047 | 123.76102 | 6484 ft | 259 kts | 353° |
| 2026-04-23 02:48 | 9.73834 | 123.75816 | 7123 ft | 262 kts | 352° |
| 2026-04-23 02:48 | 9.75651 | 123.75526 | 7743 ft | 265 kts | 352° |
| 2026-04-23 02:49 | 9.77489 | 123.75243 | 8351 ft | 268 kts | 354° |
| 2026-04-23 02:49 | 9.79346 | 123.75089 | 8914 ft | 272 kts | 359° |
| 2026-04-23 02:49 | 9.81286 | 123.75050 | 9227 ft | 288 kts | 1° |
| 2026-04-23 02:49 | 9.83344 | 123.75034 | 9690 ft | 298 kts | 0° |
| 2026-04-23 02:50 | 9.85406 | 123.75015 | 10297 ft | 302 kts | 0° |
| 2026-04-23 02:50 | 9.87571 | 123.74992 | 10628 ft | 317 kts | 359° |
| 2026-04-23 02:50 | 9.89797 | 123.74706 | 11147 ft | 326 kts | 346° |
| 2026-04-23 02:50 | 9.91904 | 123.73896 | 11806 ft | 329 kts | 333° |
| 2026-04-23 02:51 | 9.93904 | 123.72772 | 12489 ft | 331 kts | 329° |
| 2026-04-23 02:51 | 9.95922 | 123.71572 | 13136 ft | 334 kts | 329° |
| 2026-04-23 02:51 | 9.97924 | 123.70377 | 13761 ft | 337 kts | 329° |
| 2026-04-23 02:51 | 9.99965 | 123.69164 | 14369 ft | 341 kts | 329° |
| 2026-04-23 02:52 | 10.01997 | 123.67966 | 14958 ft | 343 kts | 330° |
| 2026-04-23 02:52 | 10.04065 | 123.66752 | 15547 ft | 347 kts | 330° |
| 2026-04-23 02:52 | 10.06188 | 123.65509 | 16116 ft | 350 kts | 330° |
| 2026-04-23 02:52 | 10.08299 | 123.64275 | 16677 ft | 354 kts | 330° |
| 2026-04-23 02:53 | 10.10442 | 123.63024 | 17221 ft | 357 kts | 330° |
| 2026-04-23 02:53 | 10.12606 | 123.61760 | 17777 ft | 360 kts | 330° |
| 2026-04-23 02:53 | 10.14702 | 123.60535 | 18325 ft | 362 kts | 330° |
| 2026-04-23 02:53 | 10.16875 | 123.59265 | 18900 ft | 364 kts | 330° |
| 2026-04-23 02:54 | 10.19079 | 123.57976 | 19477 ft | 365 kts | 331° |
| 2026-04-23 02:54 | 10.21256 | 123.56704 | 20036 ft | 367 kts | 331° |
| 2026-04-23 02:54 | 10.23470 | 123.55409 | 20574 ft | 368 kts | 331° |
| 2026-04-23 02:54 | 10.25699 | 123.54106 | 21115 ft | 370 kts | 331° |
| 2026-04-23 02:55 | 10.27930 | 123.52803 | 21638 ft | 372 kts | 331° |
| 2026-04-23 02:55 | 10.30181 | 123.51489 | 22144 ft | 374 kts | 332° |
| 2026-04-23 02:55 | 10.32425 | 123.50181 | 22660 ft | 375 kts | 332° |
| 2026-04-23 02:55 | 10.34677 | 123.48871 | 23140 ft | 378 kts | 331° |
| 2026-04-23 02:56 | 10.36986 | 123.47527 | 23594 ft | 381 kts | 331° |
| 2026-04-23 02:56 | 10.39275 | 123.46191 | 24039 ft | 384 kts | 331° |
| 2026-04-23 02:56 | 10.41596 | 123.44835 | 24497 ft | 387 kts | 331° |
| 2026-04-23 02:56 | 10.43969 | 123.43449 | 24948 ft | 390 kts | 331° |
| 2026-04-23 02:57 | 10.46312 | 123.42081 | 25387 ft | 393 kts | 330° |
| 2026-04-23 02:57 | 10.48699 | 123.40685 | 25803 ft | 396 kts | 330° |
| 2026-04-23 02:57 | 10.51073 | 123.39295 | 26225 ft | 399 kts | 330° |
| 2026-04-23 02:57 | 10.53492 | 123.37880 | 26647 ft | 401 kts | 330° |
| 2026-04-23 02:58 | 10.55929 | 123.36454 | 27048 ft | 404 kts | 330° |
| 2026-04-23 02:58 | 10.58356 | 123.35033 | 27451 ft | 407 kts | 330° |
| 2026-04-23 02:58 | 10.60824 | 123.33589 | 27852 ft | 410 kts | 330° |
| 2026-04-23 02:58 | 10.63303 | 123.32137 | 28240 ft | 413 kts | 330° |
| 2026-04-23 02:59 | 10.65795 | 123.30684 | 28620 ft | 416 kts | 330° |
| 2026-04-23 02:59 | 10.68334 | 123.29205 | 28972 ft | 420 kts | 330° |
| 2026-04-23 02:59 | 10.70873 | 123.27727 | 29358 ft | 422 kts | 330° |
| 2026-04-23 02:59 | 10.73401 | 123.26255 | 29740 ft | 425 kts | 329° |
| 2026-04-23 03:00 | 10.75956 | 123.24764 | 30090 ft | 428 kts | 329° |
| 2026-04-23 03:00 | 10.78500 | 123.23273 | 30447 ft | 431 kts | 329° |
| 2026-04-23 03:00 | 10.81083 | 123.21759 | 30812 ft | 433 kts | 329° |
| 2026-04-23 03:00 | 10.83642 | 123.20258 | 31161 ft | 436 kts | 329° |
| 2026-04-23 03:01 | 10.86180 | 123.18767 | 31506 ft | 438 kts | 329° |
| 2026-04-23 03:01 | 10.88696 | 123.17287 | 31841 ft | 440 kts | 328° |
| 2026-04-23 03:01 | 10.91303 | 123.15756 | 32206 ft | 442 kts | 328° |
| 2026-04-23 03:01 | 10.93864 | 123.14252 | 32621 ft | 442 kts | 328° |
| 2026-04-23 03:02 | 10.96513 | 123.12695 | 33061 ft | 443 kts | 328° |
| 2026-04-23 03:02 | 10.99117 | 123.11166 | 33481 ft | 443 kts | 328° |
| 2026-04-23 03:02 | 11.01783 | 123.09604 | 33846 ft | 445 kts | 328° |
| 2026-04-23 03:03 | 11.07141 | 123.06461 | 33877 ft | 445 kts | 328° |
| 2026-04-23 03:03 | 11.12438 | 123.03350 | 33880 ft | 445 kts | 328° |
| 2026-04-23 03:04 | 11.17726 | 123.00240 | 33880 ft | 445 kts | 328° |
| 2026-04-23 03:04 | 11.23010 | 122.97132 | 33883 ft | 444 kts | 328° |
| 2026-04-23 03:05 | 11.28298 | 122.94018 | 33886 ft | 444 kts | 328° |
| 2026-04-23 03:05 | 11.33568 | 122.90916 | 33886 ft | 444 kts | 328° |
| 2026-04-23 03:06 | 11.38806 | 122.87835 | 33887 ft | 444 kts | 328° |
| 2026-04-23 03:06 | 11.44030 | 122.84759 | 33887 ft | 444 kts | 328° |
| 2026-04-23 03:07 | 11.49212 | 122.81702 | 33887 ft | 443 kts | 328° |
| 2026-04-23 03:07 | 11.54368 | 122.78658 | 33890 ft | 443 kts | 328° |
| 2026-04-23 03:08 | 11.59565 | 122.75569 | 33892 ft | 442 kts | 326° |
| 2026-04-23 03:08 | 11.64607 | 122.72237 | 33892 ft | 442 kts | 324° |
| 2026-04-23 03:09 | 11.69685 | 122.68814 | 33893 ft | 442 kts | 324° |
| 2026-04-23 03:09 | 11.74715 | 122.65423 | 33895 ft | 442 kts | 324° |
| 2026-04-23 03:10 | 11.79820 | 122.61982 | 33897 ft | 441 kts | 324° |
| 2026-04-23 03:10 | 11.84885 | 122.58568 | 33897 ft | 441 kts | 324° |
| 2026-04-23 03:11 | 11.89969 | 122.55138 | 33896 ft | 441 kts | 324° |
| 2026-04-23 03:11 | 11.95069 | 122.51698 | 33899 ft | 441 kts | 324° |
| 2026-04-23 03:12 | 12.00187 | 122.48243 | 33897 ft | 441 kts | 324° |
| 2026-04-23 03:12 | 12.05275 | 122.44807 | 33896 ft | 441 kts | 324° |
| 2026-04-23 03:13 | 12.10316 | 122.41401 | 33895 ft | 441 kts | 324° |
| 2026-04-23 03:13 | 12.15377 | 122.37978 | 33894 ft | 441 kts | 324° |
| 2026-04-23 03:14 | 12.20453 | 122.34546 | 33895 ft | 441 kts | 324° |
| 2026-04-23 03:14 | 12.25466 | 122.31153 | 33894 ft | 440 kts | 324° |
| 2026-04-23 03:15 | 12.30492 | 122.27747 | 33894 ft | 440 kts | 324° |
| 2026-04-23 03:15 | 12.35540 | 122.24328 | 33894 ft | 440 kts | 324° |
| 2026-04-23 03:16 | 12.40558 | 122.20888 | 33894 ft | 440 kts | 324° |
| 2026-04-23 03:16 | 12.47917 | 122.15775 | 33600 ft | 439 kts | 324° |
| 2026-04-23 03:17 | 12.50389 | 122.14056 | 33324 ft | 437 kts | 324° |
| 2026-04-23 03:17 | 12.52886 | 122.12321 | 33045 ft | 435 kts | 324° |
| 2026-04-23 03:17 | 12.55404 | 122.10571 | 32763 ft | 433 kts | 324° |
| 2026-04-23 03:17 | 12.57855 | 122.08867 | 32515 ft | 433 kts | 324° |
| 2026-04-23 03:18 | 12.60335 | 122.07141 | 32265 ft | 434 kts | 324° |
| 2026-04-23 03:18 | 12.62814 | 122.05416 | 32016 ft | 435 kts | 324° |
| 2026-04-23 03:18 | 12.65346 | 122.03654 | 31763 ft | 435 kts | 324° |
| 2026-04-23 03:18 | 12.67816 | 122.01936 | 31514 ft | 434 kts | 324° |
| 2026-04-23 03:19 | 12.70276 | 122.00223 | 31253 ft | 432 kts | 324° |
| 2026-04-23 03:19 | 12.72744 | 121.98505 | 31025 ft | 431 kts | 324° |
| 2026-04-23 03:19 | 12.75188 | 121.96803 | 30817 ft | 430 kts | 324° |
| 2026-04-23 03:19 | 12.77641 | 121.95095 | 30555 ft | 429 kts | 324° |
| 2026-04-23 03:20 | 12.80093 | 121.93388 | 30225 ft | 427 kts | 324° |
| 2026-04-23 03:20 | 12.82544 | 121.91679 | 29870 ft | 425 kts | 324° |
| 2026-04-23 03:20 | 12.84970 | 121.89988 | 29506 ft | 422 kts | 325° |
| 2026-04-23 03:20 | 12.87352 | 121.88326 | 29138 ft | 419 kts | 325° |
| 2026-04-23 03:21 | 12.89791 | 121.86626 | 28758 ft | 417 kts | 325° |
| 2026-04-23 03:21 | 12.92139 | 121.84988 | 28390 ft | 414 kts | 325° |
| 2026-04-23 03:21 | 12.94525 | 121.83324 | 28037 ft | 410 kts | 325° |
| 2026-04-23 03:21 | 12.96860 | 121.81695 | 27712 ft | 407 kts | 325° |
| 2026-04-23 03:22 | 12.99173 | 121.80080 | 27389 ft | 403 kts | 325° |
| 2026-04-23 03:22 | 13.01499 | 121.78458 | 27066 ft | 399 kts | 325° |
| 2026-04-23 03:22 | 13.03770 | 121.76871 | 26748 ft | 395 kts | 325° |
| 2026-04-23 03:22 | 13.06049 | 121.75279 | 26431 ft | 392 kts | 325° |
| 2026-04-23 03:23 | 13.08269 | 121.73728 | 26116 ft | 389 kts | 325° |
| 2026-04-23 03:23 | 13.10479 | 121.72184 | 25799 ft | 385 kts | 325° |
| 2026-04-23 03:23 | 13.12698 | 121.70631 | 25478 ft | 382 kts | 325° |
| 2026-04-23 03:23 | 13.14868 | 121.69115 | 25160 ft | 380 kts | 325° |
| 2026-04-23 03:24 | 13.17048 | 121.67590 | 24841 ft | 377 kts | 325° |
| 2026-04-23 03:24 | 13.19192 | 121.66090 | 24526 ft | 374 kts | 325° |
| 2026-04-23 03:24 | 13.21320 | 121.64602 | 24219 ft | 371 kts | 325° |
| 2026-04-23 03:24 | 13.22740 | 121.63607 | 24004 ft | 370 kts | 325° |